METAR Data
IDs: Format: Raw Decoded Include TAF

Data at: 2004 UTC 13 Nov 2019

METAR for:KDNS (Denison Muni, IA, US)
Text:KDNS 131955Z AUTO 23005KT 2 1/2SM -SN SCT013 SCT027 M01/M01 A2995 RMK AO2
Temperature: -1.0°C ( 30°F)
Dewpoint: -1.0°C ( 30°F) [RH = 100%]
Pressure (altimeter):29.95 inches Hg (1014.3 mb)
Winds:from the SW (230 degrees) at 6 MPH (5 knots; 2.6 m/s)
Visibility: 2.50 sm ( 4.02 km)
Ceiling:at least 12,000 feet AGL
Clouds: scattered clouds at 1300 feet AGL, scattered clouds at 2700 feet AGL
Weather:-SN (light snow)
QC Flag:automated observation with no human augmentation